Time;durP1;ratioP1;P1;durP2;ratioP2;P2;SDS_P1;SDS_P2;PMS_P1;PMS_P2;Temp;Humidity;BMP_temperature;BMP_pressure;BME280_temperature;BME280_humidity;BME280_pressure;Samples;Min_cycle;Max_cycle;Signal;HPM_P1;HPM_P2
2022/06/23 00:02:27;;;;;;;0.40;0.30;;;;;;;15.01;100.00;98557.16;1740687;81;21085;-50
2022/06/23 00:04:57;;;;;;;0.30;0.30;;;;;;;15.02;100.00;98556.17;1740936;81;21101;-50
2022/06/23 00:07:32;;;;;;;0.42;0.30;;;;;;;15.02;100.00;98564.30;1742962;80;21734;-54
2022/06/23 00:10:01;;;;;;;1.12;0.40;;;;;;;15.03;100.00;98555.69;1738272;80;21125;-51
2022/06/23 00:12:36;;;;;;;0.93;0.25;;;;;;;15.01;100.00;98561.72;1738814;80;21145;-50
2022/06/23 00:15:08;;;;;;;2.62;0.30;;;;;;;14.97;100.00;98557.05;1742100;81;21227;-52
2022/06/23 00:17:49;;;;;;;0.33;0.30;;;;;;;14.96;100.00;98559.42;1740795;81;21046;-52
2022/06/23 00:20:30;;;;;;;1.47;0.33;;;;;;;14.96;100.00;98564.84;1744329;81;21586;-51
2022/06/23 00:23:14;;;;;;;2.25;0.30;;;;;;;14.99;100.00;98574.53;1743250;81;20969;-51
2022/06/23 00:25:57;;;;;;;0.40;0.30;;;;;;;15.01;100.00;98572.06;1742188;81;21087;-50
2022/06/23 00:28:34;;;;;;;0.80;0.35;;;;;;;15.03;100.00;98571.45;1744238;81;20907;-55
2022/06/23 00:31:04;;;;;;;0.60;0.40;;;;;;;15.05;100.00;98569.48;1740216;81;21485;-53
2022/06/23 00:33:40;;;;;;;1.17;0.30;;;;;;;15.05;100.00;98572.19;1744062;81;20961;-52
2022/06/23 00:36:35;;;;;;;1.57;0.40;;;;;;;15.02;100.00;98563.45;1742032;81;21438;-54
2022/06/23 00:39:04;;;;;;;0.40;0.30;;;;;;;14.97;100.00;98566.53;1740627;81;21235;-54
2022/06/23 00:41:35;;;;;;;1.50;0.40;;;;;;;14.94;100.00;98569.52;1716991;82;20906;-51
2022/06/23 00:44:06;;;;;;;5.00;0.40;;;;;;;14.93;100.00;98562.87;1717950;82;20910;-51
2022/06/23 00:46:46;;;;;;;1.00;0.50;;;;;;;14.93;100.00;98567.80;1743074;81;21593;-51
2022/06/23 00:49:27;;;;;;;0.47;0.40;;;;;;;14.96;100.00;98560.77;1738867;81;21396;-54
2022/06/23 00:51:58;;;;;;;1.27;0.80;;;;;;;14.98;100.00;98560.61;1741022;81;21773;-51
2022/06/23 00:54:32;;;;;;;1.27;0.47;;;;;;;14.96;100.00;98564.84;1740963;80;21088;-50
2022/06/23 00:57:24;;;;;;;3.20;0.40;;;;;;;14.95;100.00;98556.34;1737620;80;21513;-53
2022/06/23 01:00:18;;;;;;;0.47;0.40;;;;;;;14.94;100.00;98557.33;1702487;83;21358;-54
2022/06/23 01:02:58;;;;;;;0.65;0.40;;;;;;;14.88;100.00;98555.14;1744872;81;21856;-54
2022/06/23 01:05:42;;;;;;;0.93;0.40;;;;;;;14.86;100.00;98554.41;1741147;80;21721;-55
2022/06/23 01:08:21;;;;;;;0.93;0.40;;;;;;;14.87;100.00;98550.71;1740900;81;21031;-51
2022/06/23 01:11:04;;;;;;;0.60;0.30;;;;;;;14.90;100.00;98555.84;1740189;80;21142;-53
2022/06/23 01:13:43;;;;;;;2.17;0.40;;;;;;;14.90;100.00;98553.14;1743062;80;21038;-54
2022/06/23 01:16:24;;;;;;;2.92;0.40;;;;;;;14.93;100.00;98556.09;1740670;81;21061;-55
2022/06/23 01:19:15;;;;;;;0.93;0.50;;;;;;;14.94;100.00;98560.52;1735720;81;22626;-53
2022/06/23 01:21:49;;;;;;;5.03;0.50;;;;;;;14.92;100.00;98548.45;1739963;81;21050;-52
2022/06/23 01:24:38;;;;;;;2.25;0.50;;;;;;;14.90;100.00;98550.92;1743017;81;21087;-52
2022/06/23 01:27:45;;;;;;;0.40;0.40;;;;;;;14.88;100.00;98544.30;1740188;81;21532;-52
2022/06/23 01:30:12;;;;;;;1.00;0.57;;;;;;;14.87;100.00;98533.59;1713276;80;21338;-52
2022/06/23 01:32:44;;;;;;;1.07;0.80;;;;;;;14.84;100.00;98541.48;1741197;81;21306;-52
2022/06/23 01:35:27;;;;;;;2.05;0.55;;;;;;;14.79;100.00;98530.19;1740837;81;21077;-52
2022/06/23 01:38:10;;;;;;;1.20;0.60;;;;;;;14.75;100.00;98531.42;1739145;80;21096;-52
2022/06/23 01:40:48;;;;;;;1.02;0.53;;;;;;;14.71;100.00;98532.69;1739003;80;21119;-51
2022/06/23 01:43:22;;;;;;;0.57;0.53;;;;;;;14.69;100.00;98534.66;1741043;81;21593;-52
2022/06/23 01:45:57;;;;;;;0.60;0.57;;;;;;;14.70;100.00;98543.15;1744129;80;21092;-52
2022/06/23 01:48:53;;;;;;;1.47;0.70;;;;;;;14.69;100.00;98542.28;1742326;80;21057;-52
2022/06/23 01:51:30;;;;;;;2.75;0.60;;;;;;;14.69;100.00;98540.93;1711073;81;21399;-52
2022/06/23 01:54:22;;;;;;;5.70;0.90;;;;;;;14.70;100.00;98545.86;1701783;82;21085;-52
2022/06/23 01:57:13;;;;;;;0.70;0.60;;;;;;;14.67;100.00;98555.09;1701456;82;21065;-52
2022/06/23 02:00:20;;;;;;;5.15;0.70;;;;;;;14.64;100.00;98551.27;1702946;82;21824;-52
2022/06/23 02:03:01;;;;;;;5.08;1.07;;;;;;;14.61;100.00;98554.25;1698772;82;21113;-52
2022/06/23 02:06:07;;;;;;;3.62;1.10;;;;;;;14.62;100.00;98552.41;1701350;82;21689;-52
2022/06/23 02:08:55;;;;;;;2.12;0.80;;;;;;;14.61;100.00;98561.52;1667933;83;20907;-52
2022/06/23 02:11:36;;;;;;;1.40;1.02;;;;;;;14.61;100.00;98570.50;1703109;82;21072;-52
2022/06/23 02:14:48;;;;;;;2.10;0.80;;;;;;;14.60;100.00;98565.21;1667112;83;21464;-52
2022/06/23 02:17:29;;;;;;;1.77;0.80;;;;;;;14.60;100.00;98570.14;1692337;83;21157;-52
2022/06/23 02:20:16;;;;;;;3.00;0.80;;;;;;;14.60;100.00;98562.50;1659936;83;21140;-52
2022/06/23 02:22:45;;;;;;;1.90;0.75;;;;;;;14.60;100.00;98567.42;1700573;82;22084;-52
2022/06/23 02:25:21;;;;;;;0.88;0.75;;;;;;;14.60;100.00;98566.08;1701055;82;21180;-52
2022/06/23 02:27:59;;;;;;;1.98;0.80;;;;;;;14.62;100.00;98571.37;1701151;82;21242;-53
2022/06/23 02:30:45;;;;;;;1.42;0.85;;;;;;;14.64;100.00;98569.37;1695962;82;21106;-53
2022/06/23 02:33:23;;;;;;;7.35;1.00;;;;;;;14.63;100.00;98563.09;1699568;82;21105;-52
2022/06/23 02:36:03;;;;;;;3.17;0.90;;;;;;;14.64;100.00;98565.30;1682884;82;21485;-52
2022/06/23 02:38:40;;;;;;;5.30;0.78;;;;;;;14.63;100.00;98566.32;1698101;82;21555;-52
2022/06/23 02:41:18;;;;;;;3.25;0.80;;;;;;;14.63;100.00;98568.50;1673184;83;21408;-52
2022/06/23 02:44:20;;;;;;;2.72;0.82;;;;;;;14.63;100.00;98565.80;1700150;82;21707;-52
2022/06/23 02:47:07;;;;;;;1.50;0.80;;;;;;;14.62;100.00;98570.88;1702229;82;21817;-52
2022/06/23 02:49:51;;;;;;;3.83;0.80;;;;;;;14.62;100.00;98574.94;1701300;82;21332;-52
2022/06/23 02:52:38;;;;;;;2.27;0.90;;;;;;;14.63;100.00;98575.27;1710880;82;21041;-52
2022/06/23 02:55:29;;;;;;;7.37;1.02;;;;;;;14.64;100.00;98581.06;1695482;82;21230;-52
2022/06/23 02:58:02;;;;;;;3.33;0.95;;;;;;;14.66;100.00;98573.67;1711944;82;21099;-52
2022/06/23 03:00:41;;;;;;;0.93;0.78;;;;;;;14.68;100.00;98571.70;1710869;82;20961;-52
2022/06/23 03:03:12;;;;;;;3.92;0.70;;;;;;;14.71;100.00;98578.73;1711170;82;21109;-52
2022/06/23 03:06:03;;;;;;;1.00;0.70;;;;;;;14.73;100.00;98573.52;1712639;82;22463;-52
2022/06/23 03:08:54;;;;;;;4.80;0.90;;;;;;;14.75;100.00;98581.53;1685000;83;21561;-52
2022/06/23 03:12:00;;;;;;;1.10;0.80;;;;;;;14.75;100.00;98576.11;1686144;83;22128;-52
2022/06/23 03:14:49;;;;;;;3.15;0.70;;;;;;;14.77;100.00;98590.39;1712106;82;20884;-52
2022/06/23 03:17:26;;;;;;;5.67;0.70;;;;;;;14.76;100.00;98580.05;1714445;82;20911;-53
2022/06/23 03:20:33;;;;;;;1.75;0.80;;;;;;;14.78;100.00;98583.99;1692072;82;20928;-52
2022/06/23 03:23:38;;;;;;;2.35;0.70;;;;;;;14.77;100.00;98576.84;1714548;82;21088;-53
2022/06/23 03:26:31;;;;;;;2.15;0.70;;;;;;;14.79;100.00;98577.59;1700240;82;20970;-52
2022/06/23 03:29:22;;;;;;;0.90;0.68;;;;;;;14.82;100.00;98577.31;1714781;82;20946;-52
2022/06/23 03:32:03;;;;;;;0.82;0.70;;;;;;;14.85;100.00;98574.36;1715236;82;21396;-53
2022/06/23 03:34:46;;;;;;;0.88;0.70;;;;;;;14.86;100.00;98590.12;1717082;82;21278;-52
2022/06/23 03:37:42;;;;;;;2.12;1.00;;;;;;;14.85;100.00;98577.06;1698549;82;21171;-52
2022/06/23 03:43:33;;;;;;;1.37;0.75;;;;;;;14.89;100.00;98573.58;1701231;82;21394;-52
2022/06/23 03:46:25;;;;;;;1.45;0.60;;;;;;;14.94;100.00;98588.98;1712946;82;20941;-53
2022/06/23 03:49:14;;;;;;;4.33;0.60;;;;;;;14.97;100.00;98596.33;1713933;82;20934;-53
2022/06/23 03:51:58;;;;;;;0.70;0.60;;;;;;;15.00;100.00;98602.86;1701661;82;21260;-51
2022/06/23 03:54:38;;;;;;;2.37;0.50;;;;;;;15.05;100.00;98613.33;1735932;81;20918;-52
2022/06/23 03:57:31;;;;;;;3.25;0.60;;;;;;;15.07;100.00;98603.20;1732036;81;21473;-53
2022/06/23 04:00:19;;;;;;;1.85;0.50;;;;;;;15.07;100.00;98606.77;1734811;80;20981;-53
2022/06/23 04:02:48;;;;;;;1.87;0.68;;;;;;;15.08;100.00;98615.27;1696058;82;21058;-53
2022/06/23 04:05:24;;;;;;;2.98;0.68;;;;;;;15.08;100.00;98607.13;1736194;81;21104;-53
2022/06/23 04:08:01;;;;;;;2.87;0.70;;;;;;;15.10;100.00;98611.08;1732711;80;21070;-53
2022/06/23 04:10:37;;;;;;;1.15;0.60;;;;;;;15.12;100.00;98611.33;1734115;80;21101;-53
2022/06/23 04:13:28;;;;;;;;;;;;;;;15.13;100.00;98610.34;1735352;81;21128;-53
2022/06/23 04:15:55;;;;;;;0.80;0.60;;;;;;;15.16;100.00;98613.26;1732996;81;20222;-53
2022/06/23 04:18:24;;;;;;;1.95;0.70;;;;;;;15.19;100.00;98622.50;1735031;80;21219;-53
2022/06/23 04:21:06;;;;;;;1.05;0.60;;;;;;;15.21;100.00;98617.81;1735771;81;21061;-53
2022/06/23 04:23:36;;;;;;;2.80;0.60;;;;;;;15.24;100.00;98627.02;1732143;81;21070;-53
2022/06/23 04:26:08;;;;;;;0.80;0.50;;;;;;;15.27;100.00;98625.91;1734300;81;22501;-53
2022/06/23 04:28:47;;;;;;;1.30;0.55;;;;;;;15.30;100.00;98622.45;1732253;80;21552;-53
2022/06/23 04:31:27;;;;;;;1.85;0.55;;;;;;;15.33;100.00;98622.66;1721977;81;21146;-53
2022/06/23 04:33:54;;;;;;;2.62;0.60;;;;;;;15.36;100.00;98623.77;1695590;82;21121;-53
2022/06/23 04:36:24;;;;;;;1.37;0.60;;;;;;;15.38;100.00;98629.44;1733317;81;21120;-52
2022/06/23 04:38:55;;;;;;;0.70;0.60;;;;;;;15.42;100.00;98626.81;1732404;81;21051;-54
2022/06/23 04:41:27;;;;;;;1.05;0.50;;;;;;;15.47;100.00;98634.56;1733046;80;21550;-53
2022/06/23 04:44:02;;;;;;;1.65;0.62;;;;;;;15.51;100.00;98636.87;1735180;81;21274;-52
2022/06/23 04:46:40;;;;;;;1.65;0.70;;;;;;;15.55;100.00;98639.36;1733114;81;22045;-53
2022/06/23 04:49:21;;;;;;;1.52;0.60;;;;;;;15.56;100.00;98646.02;1711824;81;21113;-53
2022/06/23 04:51:57;;;;;;;0.78;0.50;;;;;;;15.58;100.00;98633.66;1738217;80;21616;-53
2022/06/23 04:54:36;;;;;;;0.60;0.55;;;;;;;15.59;100.00;98638.09;1743565;80;22027;-54
2022/06/23 04:57:11;;;;;;;4.00;0.60;;;;;;;15.58;100.00;98641.30;1740169;80;21740;-52
2022/06/23 04:59:48;;;;;;;4.28;0.60;;;;;;;15.60;100.00;98645.23;1743172;80;21382;-52
2022/06/23 05:02:32;;;;;;;3.33;0.60;;;;;;;15.62;100.00;98649.55;1742698;80;21764;-53
2022/06/23 05:05:18;;;;;;;2.50;0.50;;;;;;;15.65;100.00;98649.79;1743550;80;21051;-53
2022/06/23 05:08:01;;;;;;;4.78;0.55;;;;;;;15.67;100.00;98647.78;1743341;80;21058;-53
2022/06/23 05:10:34;;;;;;;1.57;0.60;;;;;;;15.70;100.00;98648.88;1743550;80;21104;-53
2022/06/23 05:13:05;;;;;;;1.95;0.65;;;;;;;15.72;100.00;98646.91;1740900;80;21647;-53
2022/06/23 05:15:36;;;;;;;2.12;0.60;;;;;;;15.75;100.00;98649.33;1739061;80;21105;-53
2022/06/23 05:18:09;;;;;;;1.55;0.60;;;;;;;15.78;100.00;98652.66;1742500;80;21054;-53
2022/06/23 05:20:53;;;;;;;1.85;0.60;;;;;;;15.83;100.00;98646.81;1740046;80;21096;-53
2022/06/23 05:23:24;;;;;;;3.17;0.60;;;;;;;15.87;100.00;98643.71;1738848;80;21620;-53
2022/06/23 05:25:51;;;;;;;1.85;0.65;;;;;;;15.95;100.00;98640.81;1745086;80;21022;-54
2022/06/23 05:28:28;;;;;;;1.35;0.60;;;;;;;16.01;100.00;98644.34;1742898;80;21021;-52
2022/06/23 05:30:59;;;;;;;0.72;0.60;;;;;;;16.05;100.00;98646.67;1743087;80;21038;-52
2022/06/23 05:33:31;;;;;;;5.03;0.62;;;;;;;16.12;100.00;98653.77;1742023;80;21046;-52
2022/06/23 05:36:14;;;;;;;0.80;0.60;;;;;;;16.16;100.00;98659.30;1742116;80;21096;-52
2022/06/23 05:38:55;;;;;;;2.27;0.60;;;;;;;16.17;100.00;98657.78;1742465;80;21472;-53
2022/06/23 05:41:36;;;;;;;0.60;0.60;;;;;;;16.22;100.00;98664.19;1740086;80;21168;-52
2022/06/23 05:44:11;;;;;;;3.17;0.60;;;;;;;16.24;100.00;98663.06;1740795;80;21108;-53
2022/06/23 05:46:40;;;;;;;3.05;0.60;;;;;;;16.27;100.00;98670.05;1749344;80;21116;-53
2022/06/23 05:49:18;;;;;;;0.95;0.60;;;;;;;16.30;100.00;98672.52;1742532;80;21109;-55
2022/06/23 05:51:56;;;;;;;1.65;0.70;;;;;;;16.31;100.00;98674.23;1740929;80;21105;-56
2022/06/23 05:54:43;;;;;;;0.93;0.60;;;;;;;16.33;100.00;98676.33;1743366;80;21039;-53
2022/06/23 05:57:27;;;;;;;2.40;0.62;;;;;;;16.36;100.00;98673.31;1740584;81;21067;-53
2022/06/23 06:00:11;;;;;;;2.77;0.70;;;;;;;16.43;100.00;98680.41;1746600;80;21498;-52
2022/06/23 06:02:52;;;;;;;3.12;0.70;;;;;;;16.50;100.00;98674.82;1740583;80;21133;-53
2022/06/23 06:05:34;;;;;;;2.67;0.60;;;;;;;16.59;100.00;98680.26;1741602;80;21085;-53
2022/06/23 06:08:03;;;;;;;1.87;0.60;;;;;;;16.72;100.00;98679.20;1741003;80;21081;-53
2022/06/23 06:10:30;;;;;;;1.25;0.60;;;;;;;16.86;100.00;98682.37;1741954;81;20907;-54
2022/06/23 06:12:56;;;;;;;3.25;0.70;;;;;;;16.96;100.00;98679.69;1745658;80;21527;-54
2022/06/23 06:15:33;;;;;;;3.15;0.60;;;;;;;17.04;100.00;98674.41;1747362;81;21058;-54
2022/06/23 06:18:20;;;;;;;2.40;0.60;;;;;;;17.10;100.00;98679.28;1717299;82;21487;-54
2022/06/23 06:20:47;;;;;;;2.50;0.60;;;;;;;17.16;100.00;98682.81;1732205;80;21039;-56
2022/06/23 06:23:28;;;;;;;1.15;0.70;;;;;;;17.23;100.00;98686.68;1741163;80;20912;-53
2022/06/23 06:25:55;;;;;;;2.83;0.70;;;;;;;17.26;100.00;98680.97;1745672;80;21425;-55
2022/06/23 06:28:24;;;;;;;2.60;0.68;;;;;;;17.30;100.00;98688.33;1746037;80;21217;-53
2022/06/23 06:31:14;;;;;;;2.40;0.50;;;;;;;17.31;100.00;98694.99;1746757;80;20999;-54
2022/06/23 06:34:03;;;;;;;5.45;0.70;;;;;;;17.35;100.00;98692.33;1746121;80;21383;-54
2022/06/23 06:36:42;;;;;;;1.25;0.60;;;;;;;17.39;100.00;98696.50;1746000;80;20969;-52
2022/06/23 06:39:25;;;;;;;4.00;0.70;;;;;;;17.42;100.00;98689.06;1719113;80;20954;-53
2022/06/23 06:42:00;;;;;;;1.95;0.70;;;;;;;17.45;100.00;98677.88;1741562;80;21134;-52
2022/06/23 06:44:26;;;;;;;1.55;0.85;;;;;;;17.48;100.00;98677.09;1741734;80;21069;-53
2022/06/23 06:46:54;;;;;;;1.40;0.50;;;;;;;17.49;100.00;98677.46;1741889;80;21086;-53
2022/06/23 06:49:23;;;;;;;1.70;0.70;;;;;;;17.52;100.00;98685.34;1744180;80;21506;-54
2022/06/23 06:51:51;;;;;;;1.15;0.70;;;;;;;17.55;100.00;98679.59;1743536;80;20990;-53
2022/06/23 06:54:22;;;;;;;3.90;0.68;;;;;;;17.59;100.00;98693.79;1735448;80;21123;-53
2022/06/23 06:56:53;;;;;;;2.08;0.50;;;;;;;17.62;100.00;98694.88;1735781;80;21106;-53
2022/06/23 06:59:30;;;;;;;1.27;0.60;;;;;;;17.66;100.00;98703.13;1731363;80;21038;-53
2022/06/23 07:02:16;;;;;;;1.45;0.60;;;;;;;17.68;100.00;98707.93;1735192;80;21078;-53
2022/06/23 07:05:03;;;;;;;1.30;0.70;;;;;;;17.68;100.00;98713.37;1738365;80;21615;-53
2022/06/23 07:07:38;;;;;;;3.30;0.70;;;;;;;17.68;100.00;98707.93;1734500;80;21055;-52
2022/06/23 07:10:10;;;;;;;;;;;;;;;17.70;100.00;98714.92;1737354;81;21106;-53
2022/06/23 07:12:41;;;;;;;1.12;0.60;;;;;;;17.71;100.00;98716.64;1733312;81;20468;-53
2022/06/23 07:15:19;;;;;;;2.90;0.72;;;;;;;17.72;100.00;98728.39;1736783;81;21049;-52
2022/06/23 07:17:56;;;;;;;1.30;0.60;;;;;;;17.73;100.00;98728.75;1732213;80;21123;-53
2022/06/23 07:20:30;;;;;;;0.72;0.60;;;;;;;17.75;100.00;98739.00;1733720;80;21517;-53
2022/06/23 07:23:11;;;;;;;0.90;0.60;;;;;;;17.78;100.00;98742.78;1731611;80;21134;-53
2022/06/23 07:25:43;;;;;;;2.87;0.55;;;;;;;17.80;100.00;98745.36;1735068;80;21697;-53
2022/06/23 07:28:20;;;;;;;2.67;0.70;;;;;;;17.81;100.00;98752.03;1735701;80;21050;-52
2022/06/23 07:30:55;;;;;;;2.80;0.60;;;;;;;17.83;100.00;98766.37;1730949;80;21626;-53
2022/06/23 07:33:32;;;;;;;2.33;0.60;;;;;;;17.82;100.00;98761.92;1734710;80;21960;-53
2022/06/23 07:36:27;;;;;;;0.80;0.70;;;;;;;17.80;100.00;98765.78;1704747;81;21063;-53
2022/06/23 07:38:58;;;;;;;1.98;0.60;;;;;;;17.78;100.00;98758.61;1734160;80;21577;-53
2022/06/23 07:41:42;;;;;;;2.55;0.55;;;;;;;17.81;100.00;98758.84;1735007;80;21110;-53
2022/06/23 07:44:17;;;;;;;3.25;0.60;;;;;;;17.84;100.00;98769.45;1734649;81;21093;-53
2022/06/23 07:46:44;;;;;;;1.50;0.60;;;;;;;17.90;100.00;98775.67;1709594;81;21169;-55
2022/06/23 07:49:10;;;;;;;3.00;0.53;;;;;;;17.98;100.00;98774.45;1734294;80;21046;-54
2022/06/23 07:51:36;;;;;;;2.15;0.60;;;;;;;18.05;100.00;98771.50;1736863;80;21164;-53
2022/06/23 07:54:05;;;;;;;0.70;0.68;;;;;;;18.12;100.00;98772.64;1736775;81;21035;-54
2022/06/23 07:56:34;;;;;;;5.08;0.60;;;;;;;18.18;100.00;98770.35;1733474;80;21713;-53
2022/06/23 07:59:04;;;;;;;1.10;0.60;;;;;;;18.27;100.00;98774.93;1734075;81;21297;-54
2022/06/23 08:01:41;;;;;;;2.17;0.40;;;;;;;18.37;100.00;98774.42;1734846;80;21027;-55
2022/06/23 08:04:50;;;;;;;0.55;0.50;;;;;;;18.46;100.00;98770.78;1697394;82;21423;-54
2022/06/23 08:07:17;;;;;;;1.02;0.60;;;;;;;18.56;100.00;98772.13;1733131;80;21139;-54
2022/06/23 08:09:51;;;;;;;1.12;0.60;;;;;;;18.66;100.00;98773.84;1732333;80;21047;-54
2022/06/23 08:18:39;;;;;;;5.12;0.68;;;;;;;18.69;100.00;98795.38;1732577;80;21046;-54
2022/06/23 08:21:13;;;;;;;1.02;0.50;;;;;;;18.63;100.00;98794.58;1734842;80;21073;-54
2022/06/23 08:24:12;;;;;;;2.33;0.60;;;;;;;18.62;100.00;98797.48;1709902;80;21100;-54
2022/06/23 08:26:42;;;;;;;1.00;0.60;;;;;;;18.58;100.00;98799.63;1734019;81;21236;-54
2022/06/23 08:29:12;;;;;;;2.05;0.60;;;;;;;18.60;100.00;98795.39;1732272;80;21039;-54
2022/06/23 08:31:39;;;;;;;2.55;0.70;;;;;;;18.64;100.00;98808.56;1693153;83;21500;-54
2022/06/23 08:34:05;;;;;;;3.35;0.70;;;;;;;18.67;100.00;98806.92;1732706;80;21131;-54
2022/06/23 08:36:45;;;;;;;2.37;0.60;;;;;;;18.67;100.00;98806.92;1733233;80;21117;-54
2022/06/23 08:39:25;;;;;;;0.53;0.50;;;;;;;18.66;100.00;98810.64;1733936;80;21245;-54
2022/06/23 08:42:21;;;;;;;1.20;0.50;;;;;;;18.65;100.00;98803.47;1731811;80;21085;-54
2022/06/23 08:45:21;;;;;;;2.10;0.50;;;;;;;18.69;100.00;98815.81;1735487;80;21116;-54
2022/06/23 08:48:19;;;;;;;1.15;0.50;;;;;;;18.75;100.00;98815.72;1719294;80;21499;-53
2022/06/23 08:51:15;;;;;;;4.28;0.72;;;;;;;18.85;100.00;98813.32;1726348;80;21103;-54
2022/06/23 08:54:03;;;;;;;2.85;0.53;;;;;;;18.98;100.00;98819.79;1736376;80;21564;-53
2022/06/23 08:56:43;;;;;;;4.33;0.60;;;;;;;19.10;100.00;98815.02;1736760;80;21087;-55
2022/06/23 08:59:55;;;;;;;1.10;0.50;;;;;;;19.19;100.00;98817.70;1738750;80;21527;-54
2022/06/23 09:02:30;;;;;;;1.02;0.50;;;;;;;19.26;100.00;98827.50;1731828;80;21701;-54
2022/06/23 09:07:31;;;;;;;1.95;0.50;;;;;;;19.37;100.00;98835.50;1777396;78;28130;-53
2022/06/23 09:10:36;;;;;;;1.12;0.50;;;;;;;19.35;100.00;98842.11;1746175;80;21610;-52
2022/06/23 09:13:14;;;;;;;0.57;0.50;;;;;;;19.38;100.00;98843.18;1747385;80;21168;-53
2022/06/23 09:16:01;;;;;;;2.08;0.57;;;;;;;19.41;100.00;98851.91;1750669;80;21538;-52
2022/06/23 09:18:56;;;;;;;2.45;0.60;;;;;;;19.38;100.00;98849.50;1748881;80;20958;-53
2022/06/23 09:21:58;;;;;;;;;;;;;;;19.35;100.00;98861.20;1708422;81;20960;-53
2022/06/23 09:25:12;;;;;;;1.70;0.60;;;;;;;19.28;100.00;98861.81;1695565;82;20113;-53
2022/06/23 09:27:59;;;;;;;0.80;0.50;;;;;;;19.21;100.00;98861.21;1698895;82;21118;-53
2022/06/23 09:31:05;;;;;;;1.67;0.50;;;;;;;19.18;100.00;98865.09;1696908;83;21404;-53
2022/06/23 09:33:43;;;;;;;2.90;0.50;;;;;;;19.21;100.00;98855.75;1698148;82;20943;-52
2022/06/23 09:36:27;;;;;;;1.02;0.60;;;;;;;19.35;100.00;98856.61;1698439;82;20939;-53
2022/06/23 09:39:21;;;;;;;2.40;0.60;;;;;;;19.54;100.00;98857.06;1697222;82;21432;-54
2022/06/23 09:42:35;;;;;;;3.60;0.60;;;;;;;19.79;100.00;98857.70;1699137;82;21611;-53
2022/06/23 09:45:07;;;;;;;1.45;0.60;;;;;;;20.00;100.00;98860.12;1616639;83;21047;-53
2022/06/23 09:48:10;;;;;;;0.68;0.40;;;;;;;20.16;100.00;98856.19;1646249;82;21489;-53
2022/06/23 09:51:06;;;;;;;0.65;0.50;;;;;;;20.25;100.00;98859.34;1701495;82;20972;-54
2022/06/23 09:53:58;;;;;;;5.85;0.50;;;;;;;20.27;100.00;98861.42;1696510;82;21564;-53
2022/06/23 09:56:46;;;;;;;1.75;0.40;;;;;;;20.25;100.00;98868.05;1703297;83;21080;-53
2022/06/23 09:59:36;;;;;;;2.85;0.40;;;;;;;20.20;100.00;98871.27;1669558;83;21383;-54
2022/06/23 10:02:18;;;;;;;1.40;0.40;;;;;;;20.17;100.00;98877.53;1666275;84;21118;-53
2022/06/23 10:05:13;;;;;;;3.62;0.40;;;;;;;20.13;100.00;98874.27;1670843;83;21675;-53
2022/06/23 10:07:55;;;;;;;1.15;0.50;;;;;;;20.10;100.00;98870.47;1670720;83;21145;-53
2022/06/23 10:10:46;;;;;;;0.93;0.40;;;;;;;20.08;100.00;98886.66;1663325;84;21331;-54
2022/06/23 10:13:47;;;;;;;1.00;0.40;;;;;;;20.05;100.00;98881.52;1670501;83;21096;-54
2022/06/23 10:16:51;;;;;;;6.17;0.50;;;;;;;20.01;100.00;98880.96;1677437;84;21625;-53
2022/06/23 10:19:32;;;;;;;0.50;0.42;;;;;;;19.97;100.00;98891.36;1683746;83;21579;-53
2022/06/23 10:22:13;;;;;;;0.88;0.50;;;;;;;19.93;100.00;98887.70;1669939;84;21537;-55
2022/06/23 10:25:08;;;;;;;0.60;0.40;;;;;;;19.92;100.00;98884.62;1682494;83;21127;-53
2022/06/23 10:27:56;;;;;;;;;;;;;;;19.92;100.00;98888.20;1668475;83;21532;-55
2022/06/23 10:30:44;;;;;;;2.62;0.50;;;;;;;19.94;100.00;98883.45;1676521;83;20523;-55
2022/06/23 10:34:04;;;;;;;4.33;0.75;;;;;;;20.00;100.00;98879.23;1668543;84;21081;-54
2022/06/23 10:37:06;;;;;;;1.52;0.40;;;;;;;20.08;100.00;98892.98;1671686;84;21105;-53
2022/06/23 10:39:59;;;;;;;0.50;0.40;;;;;;;20.21;100.00;98897.58;1675043;84;21151;-54
2022/06/23 10:43:03;;;;;;;2.83;0.33;;;;;;;20.33;100.00;98899.05;1675457;84;21041;-54
2022/06/23 10:45:47;;;;;;;2.33;0.40;;;;;;;20.49;100.00;98896.17;1671169;84;21121;-55
2022/06/23 10:48:39;;;;;;;0.70;0.40;;;;;;;20.67;100.00;98895.65;1630119;84;24763;-55
2022/06/23 10:51:59;;;;;;;0.90;0.40;;;;;;;20.81;100.00;98898.31;1672849;83;21057;-54
2022/06/23 10:55:16;;;;;;;0.40;0.30;;;;;;;20.88;100.00;98898.02;1646463;83;21577;-55
2022/06/23 10:58:00;;;;;;;0.40;0.40;;;;;;;20.92;100.00;98902.16;1689508;83;21105;-55
2022/06/23 11:01:20;;;;;;;0.50;0.40;;;;;;;20.91;100.00;98906.77;1685273;83;21037;-56
2022/06/23 11:04:21;;;;;;;0.68;0.30;;;;;;;20.87;100.00;98907.23;1678860;84;21146;-56
2022/06/23 11:07:36;;;;;;;2.22;0.40;;;;;;;20.80;100.00;98926.17;1673895;83;21046;-55
2022/06/23 11:10:24;;;;;;;4.12;0.70;;;;;;;20.72;100.00;98931.06;1667690;84;21490;-57
2022/06/23 11:13:13;;;;;;;1.50;0.40;;;;;;;20.66;100.00;98938.54;1668798;84;21098;-55
2022/06/23 11:15:57;;;;;;;4.42;0.40;;;;;;;20.63;100.00;98937.98;1664288;84;21079;-56
2022/06/23 11:18:41;;;;;;;0.70;0.30;;;;;;;20.57;100.00;98938.11;1667891;84;21141;-55
2022/06/23 11:22:00;;;;;;;2.90;0.50;;;;;;;20.52;100.00;98943.67;1666989;84;21090;-55
2022/06/23 11:25:04;;;;;;;0.90;0.42;;;;;;;20.48;100.00;98947.75;1667828;84;21151;-54
2022/06/23 11:27:56;;;;;;;4.12;0.45;;;;;;;20.40;100.00;98948.53;1641458;85;22420;-55
2022/06/23 11:30:33;;;;;;;1.82;0.40;;;;;;;20.33;100.00;98956.98;1630704;84;21362;-54
2022/06/23 11:33:20;;;;;;;0.65;0.30;;;;;;;20.26;100.00;98956.70;1667432;84;21085;-54
2022/06/23 11:36:16;;;;;;;0.78;0.50;;;;;;;20.18;100.00;98965.32;1664612;84;22121;-55
2022/06/23 11:39:23;;;;;;;3.17;0.50;;;;;;;20.11;100.00;98980.11;1669046;84;21574;-54
2022/06/23 11:41:57;;;;;;;1.02;0.45;;;;;;;20.08;100.00;98979.03;1669175;84;21090;-54
2022/06/23 11:44:58;;;;;;;2.58;0.50;;;;;;;20.05;100.00;98986.19;1703925;82;21075;-54
2022/06/23 11:47:48;;;;;;;5.25;0.40;;;;;;;20.00;100.00;98979.80;1695748;82;21086;-53
2022/06/23 11:50:49;;;;;;;4.12;0.40;;;;;;;19.97;100.00;98991.56;1677429;82;21073;-54
2022/06/23 11:53:42;;;;;;;1.40;0.40;;;;;;;19.96;100.00;98994.80;1685955;82;21679;-53
2022/06/23 11:56:38;;;;;;;0.60;0.40;;;;;;;19.97;100.00;98999.75;1667684;83;21092;-53
2022/06/23 11:59:25;;;;;;;6.05;0.50;;;;;;;19.96;100.00;99001.63;1700275;82;21345;-53
2022/06/23 12:01:53;;;;;;;1.42;0.50;;;;;;;19.97;100.00;98998.38;1671706;84;20968;-53
2022/06/23 12:04:47;;;;;;;0.93;0.40;;;;;;;19.98;100.00;99006.94;1665300;84;20939;-54
2022/06/23 12:07:31;;;;;;;0.53;0.40;;;;;;;20.00;100.00;99008.48;1674442;83;20971;-53
2022/06/23 12:10:17;;;;;;;2.40;0.50;;;;;;;20.01;100.00;99014.30;1658498;84;21567;-53
2022/06/23 12:12:46;;;;;;;3.33;0.50;;;;;;;20.02;100.00;99019.27;1661650;84;21003;-53
2022/06/23 12:15:17;;;;;;;4.80;0.47;;;;;;;20.02;100.00;99020.63;1684256;83;20962;-53
2022/06/23 12:17:47;;;;;;;0.72;0.35;;;;;;;20.02;100.00;99023.36;1659233;84;21560;-55
2022/06/23 12:20:26;;;;;;;1.72;0.30;;;;;;;20.01;100.00;99021.64;1663471;84;21697;-54
2022/06/23 12:23:13;;;;;;;3.40;0.40;;;;;;;20.00;100.00;99018.05;1666637;84;21546;-54
2022/06/23 12:26:24;;;;;;;2.05;0.40;;;;;;;20.01;100.00;99017.55;1659166;84;21006;-54
2022/06/23 12:29:20;;;;;;;1.98;0.30;;;;;;;20.00;100.00;99018.55;1659364;84;20991;-55
2022/06/23 12:32:05;;;;;;;1.72;0.40;;;;;;;20.00;100.00;99022.14;1660135;84;20994;-53
2022/06/23 12:34:49;;;;;;;0.72;0.40;;;;;;;20.03;100.00;99023.72;1651549;84;21850;-54
2022/06/23 12:37:44;;;;;;;;;;;;;;;20.04;100.00;99026.81;1666166;84;20971;-54
2022/06/23 12:40:33;;;;;;;1.10;0.40;;;;;;;20.08;100.00;99028.72;1678911;83;20924;-54
2022/06/23 12:43:25;;;;;;;3.27;0.50;;;;;;;20.07;100.00;99028.39;1677775;83;21582;-54
2022/06/23 12:46:11;;;;;;;0.68;0.40;;;;;;;20.08;100.00;99039.14;1683844;83;20957;-54
2022/06/23 12:49:01;;;;;;;0.85;0.42;;;;;;;20.09;100.00;99050.93;1688518;83;21820;-55
2022/06/23 12:52:07;;;;;;;4.00;0.40;;;;;;;20.11;100.00;99042.09;1684791;83;21147;-55
2022/06/23 12:54:45;;;;;;;0.70;0.40;;;;;;;20.12;100.00;99031.02;1662076;84;21116;-55